sensor_id;sensor_type;location;lat;lon;timestamp;pressure;altitude;pressure_sealevel;temperature;humidity
13974;BME280;7060;43.770;4.008;2023-01-27T00:01:42;100926.47;;;0.70;55.45
13974;BME280;7060;43.770;4.008;2023-01-27T00:04:11;100923.53;;;0.76;55.56
13974;BME280;7060;43.770;4.008;2023-01-27T00:06:40;100915.84;;;0.72;55.92
13974;BME280;7060;43.770;4.008;2023-01-27T00:09:08;100906.84;;;0.60;56.38
13974;BME280;7060;43.770;4.008;2023-01-27T00:11:37;100901.03;;;0.53;55.56
13974;BME280;7060;43.770;4.008;2023-01-27T00:14:24;100902.66;;;0.56;55.15
13974;BME280;7060;43.770;4.008;2023-01-27T00:16:53;100904.97;;;0.62;54.95
13974;BME280;7060;43.770;4.008;2023-01-27T00:19:21;100898.69;;;0.64;54.80
13974;BME280;7060;43.770;4.008;2023-01-27T00:21:50;100907.28;;;0.68;54.28
13974;BME280;7060;43.770;4.008;2023-01-27T00:24:35;100908.75;;;0.74;54.50
13974;BME280;7060;43.770;4.008;2023-01-27T00:27:06;100909.34;;;0.79;54.09
13974;BME280;7060;43.770;4.008;2023-01-27T00:29:40;100901.31;;;0.82;53.91
13974;BME280;7060;43.770;4.008;2023-01-27T00:32:09;100889.16;;;0.79;54.00
13974;BME280;7060;43.770;4.008;2023-01-27T00:34:54;100898.59;;;0.83;54.21
13974;BME280;7060;43.770;4.008;2023-01-27T00:37:23;100899.28;;;0.87;53.85
13974;BME280;7060;43.770;4.008;2023-01-27T00:39:52;100895.66;;;0.89;53.75
13974;BME280;7060;43.770;4.008;2023-01-27T00:42:20;100888.91;;;0.84;53.76
13974;BME280;7060;43.770;4.008;2023-01-27T00:44:50;100904.06;;;0.96;53.45
13974;BME280;7060;43.770;4.008;2023-01-27T00:47:37;100910.09;;;0.98;53.65
13974;BME280;7060;43.770;4.008;2023-01-27T00:50:07;100909.09;;;1.00;53.47
13974;BME280;7060;43.770;4.008;2023-01-27T00:52:36;100899.47;;;0.99;53.17
13974;BME280;7060;43.770;4.008;2023-01-27T00:55:07;100907.47;;;0.98;53.61
13974;BME280;7060;43.770;4.008;2023-01-27T00:57:36;100909.47;;;0.93;54.36
13974;BME280;7060;43.770;4.008;2023-01-27T01:00:08;100901.59;;;0.93;54.41
13974;BME280;7060;43.770;4.008;2023-01-27T01:02:38;100898.59;;;0.83;54.64
13974;BME280;7060;43.770;4.008;2023-01-27T01:05:07;100903.25;;;0.78;55.00
13974;BME280;7060;43.770;4.008;2023-01-27T01:07:36;100899.91;;;0.75;54.92
13974;BME280;7060;43.770;4.008;2023-01-27T01:10:08;100900.00;;;0.73;55.20
13974;BME280;7060;43.770;4.008;2023-01-27T01:12:37;100902.00;;;0.68;55.53
13974;BME280;7060;43.770;4.008;2023-01-27T01:15:07;100894.38;;;0.63;55.55
13974;BME280;7060;43.770;4.008;2023-01-27T01:17:36;100896.38;;;0.58;55.91
13974;BME280;7060;43.770;4.008;2023-01-27T01:20:05;100892.19;;;0.54;55.49
13974;BME280;7060;43.770;4.008;2023-01-27T01:22:37;100900.16;;;0.53;55.61
13974;BME280;7060;43.770;4.008;2023-01-27T01:25:06;100888.88;;;0.51;55.11
13974;BME280;7060;43.770;4.008;2023-01-27T01:27:35;100898.63;;;0.49;55.05
13974;BME280;7060;43.770;4.008;2023-01-27T01:30:05;100900.41;;;0.48;54.96
13974;BME280;7060;43.770;4.008;2023-01-27T01:32:35;100902.88;;;0.51;54.82
13974;BME280;7060;43.770;4.008;2023-01-27T01:35:04;100893.16;;;0.36;54.67
13974;BME280;7060;43.770;4.008;2023-01-27T01:37:40;100895.50;;;0.41;54.71
13974;BME280;7060;43.770;4.008;2023-01-27T01:40:10;100898.16;;;0.41;54.96
13974;BME280;7060;43.770;4.008;2023-01-27T01:43:01;100892.81;;;0.42;54.63
13974;BME280;7060;43.770;4.008;2023-01-27T01:45:46;100900.78;;;0.41;54.84
13974;BME280;7060;43.770;4.008;2023-01-27T01:48:28;100902.63;;;0.39;54.55
13974;BME280;7060;43.770;4.008;2023-01-27T01:51:02;100899.06;;;0.40;54.74
13974;BME280;7060;43.770;4.008;2023-01-27T01:53:34;100891.09;;;0.41;54.92
13974;BME280;7060;43.770;4.008;2023-01-27T01:56:09;100891.03;;;0.43;54.71
13974;BME280;7060;43.770;4.008;2023-01-27T01:58:40;100896.38;;;0.41;54.38
13974;BME280;7060;43.770;4.008;2023-01-27T02:01:10;100890.34;;;0.39;54.85
13974;BME280;7060;43.770;4.008;2023-01-27T02:03:45;100889.47;;;0.39;54.84
13974;BME280;7060;43.770;4.008;2023-01-27T02:06:14;100882.78;;;0.33;55.37
13974;BME280;7060;43.770;4.008;2023-01-27T02:08:44;100882.06;;;0.29;55.22
13974;BME280;7060;43.770;4.008;2023-01-27T02:11:16;100888.47;;;0.24;55.32
13974;BME280;7060;43.770;4.008;2023-01-27T02:13:44;100882.59;;;0.19;55.74
13974;BME280;7060;43.770;4.008;2023-01-27T02:16:13;100887.94;;;0.17;55.94
13974;BME280;7060;43.770;4.008;2023-01-27T02:18:43;100873.94;;;0.17;55.84
13974;BME280;7060;43.770;4.008;2023-01-27T02:21:12;100873.94;;;0.17;55.92
13974;BME280;7060;43.770;4.008;2023-01-27T02:23:57;100870.59;;;0.13;55.77
13974;BME280;7060;43.770;4.008;2023-01-27T02:26:31;100877.63;;;0.13;55.33
13974;BME280;7060;43.770;4.008;2023-01-27T02:29:03;100871.84;;;0.06;55.53
13974;BME280;7060;43.770;4.008;2023-01-27T02:31:32;100873.06;;;-0.01;56.26
13974;BME280;7060;43.770;4.008;2023-01-27T02:34:04;100872.38;;;-0.05;56.45
13974;BME280;7060;43.770;4.008;2023-01-27T02:36:37;100868.81;;;-0.04;56.38
13974;BME280;7060;43.770;4.008;2023-01-27T02:39:14;100864.97;;;0.04;55.67
13974;BME280;7060;43.770;4.008;2023-01-27T02:41:47;100869.22;;;0.06;56.04
13974;BME280;7060;43.770;4.008;2023-01-27T02:44:20;100865.75;;;0.06;56.40
13974;BME280;7060;43.770;4.008;2023-01-27T02:46:49;100857.88;;;0.06;56.17
13974;BME280;7060;43.770;4.008;2023-01-27T02:49:18;100850.75;;;0.08;56.18
13974;BME280;7060;43.770;4.008;2023-01-27T02:51:46;100848.88;;;0.10;56.12
13974;BME280;7060;43.770;4.008;2023-01-27T02:54:18;100836.06;;;0.04;56.51
13974;BME280;7060;43.770;4.008;2023-01-27T02:56:48;100825.69;;;0.00;56.02
13974;BME280;7060;43.770;4.008;2023-01-27T02:59:17;100831.94;;;-0.02;56.08
13974;BME280;7060;43.770;4.008;2023-01-27T03:01:46;100828.63;;;-0.06;55.99
13974;BME280;7060;43.770;4.008;2023-01-27T03:04:16;100834.88;;;-0.08;55.85
13974;BME280;7060;43.770;4.008;2023-01-27T03:06:44;100810.81;;;-0.18;56.06
13974;BME280;7060;43.770;4.008;2023-01-27T03:09:13;100819.47;;;-0.16;56.18
13974;BME280;7060;43.770;4.008;2023-01-27T03:11:42;100825.66;;;-0.17;55.96
13974;BME280;7060;43.770;4.008;2023-01-27T03:14:30;100815.31;;;-0.20;55.92
13974;BME280;7060;43.770;4.008;2023-01-27T03:17:15;100815.47;;;-0.23;56.28
13974;BME280;7060;43.770;4.008;2023-01-27T03:20:02;100811.91;;;-0.22;55.63
13974;BME280;7060;43.770;4.008;2023-01-27T03:22:32;100802.41;;;-0.24;55.91
13974;BME280;7060;43.770;4.008;2023-01-27T03:25:01;100811.78;;;-0.19;55.76
13974;BME280;7060;43.770;4.008;2023-01-27T03:27:30;100813.63;;;-0.21;55.51
13974;BME280;7060;43.770;4.008;2023-01-27T03:30:18;100812.69;;;-0.20;55.73
13974;BME280;7060;43.770;4.008;2023-01-27T03:32:56;100807.38;;;-0.18;55.20
13974;BME280;7060;43.770;4.008;2023-01-27T03:35:44;100804.63;;;-0.17;55.32
13974;BME280;7060;43.770;4.008;2023-01-27T03:38:19;100801.25;;;-0.19;55.85
13974;BME280;7060;43.770;4.008;2023-01-27T03:41:05;100803.13;;;-0.21;55.58
13974;BME280;7060;43.770;4.008;2023-01-27T03:43:51;100806.75;;;-0.23;56.29
13974;BME280;7060;43.770;4.008;2023-01-27T03:46:40;100805.97;;;-0.25;55.86
13974;BME280;7060;43.770;4.008;2023-01-27T03:49:08;100810.28;;;-0.24;55.88
13974;BME280;7060;43.770;4.008;2023-01-27T03:51:37;100799.72;;;-0.23;55.29
13974;BME280;7060;43.770;4.008;2023-01-27T03:54:08;100802.19;;;-0.20;55.27
13974;BME280;7060;43.770;4.008;2023-01-27T03:56:37;100798.53;;;-0.17;55.23
13974;BME280;7060;43.770;4.008;2023-01-27T03:59:05;100802.00;;;-0.17;54.91
13974;BME280;7060;43.770;4.008;2023-01-27T04:01:34;100796.94;;;-0.20;54.91
13974;BME280;7060;43.770;4.008;2023-01-27T04:04:04;100796.00;;;-0.19;55.02
13974;BME280;7060;43.770;4.008;2023-01-27T04:06:49;100788.34;;;-0.23;55.43
13974;BME280;7060;43.770;4.008;2023-01-27T04:09:24;100788.19;;;-0.20;54.82
13974;BME280;7060;43.770;4.008;2023-01-27T04:11:55;100787.94;;;-0.16;54.90
13974;BME280;7060;43.770;4.008;2023-01-27T04:14:24;100735.19;;;-0.46;54.73
13974;BME280;7060;43.770;4.008;2023-01-27T04:16:54;100795.81;;;-0.16;54.90
13974;BME280;7060;43.770;4.008;2023-01-27T04:19:26;100795.81;;;-0.16;54.98
13974;BME280;7060;43.770;4.008;2023-01-27T04:21:57;100783.38;;;-0.12;55.06
13974;BME280;7060;43.770;4.008;2023-01-27T04:24:25;100796.38;;;-0.09;54.64
13974;BME280;7060;43.770;4.008;2023-01-27T04:26:55;100791.97;;;-0.09;54.15
13974;BME280;7060;43.770;4.008;2023-01-27T04:29:27;100791.97;;;-0.09;54.30
13974;BME280;7060;43.770;4.008;2023-01-27T04:31:56;100791.97;;;-0.09;54.89
13974;BME280;7060;43.770;4.008;2023-01-27T04:34:27;100790.97;;;-0.06;54.49
13974;BME280;7060;43.770;4.008;2023-01-27T04:36:55;100793.69;;;-0.08;54.50
13974;BME280;7060;43.770;4.008;2023-01-27T04:39:24;100791.97;;;-0.09;54.45
13974;BME280;7060;43.770;4.008;2023-01-27T04:41:54;100802.50;;;-0.09;54.46
13974;BME280;7060;43.770;4.008;2023-01-27T04:44:23;100800.72;;;-0.08;54.55
13974;BME280;7060;43.770;4.008;2023-01-27T04:46:52;100797.09;;;-0.06;54.12
13974;BME280;7060;43.770;4.008;2023-01-27T04:49:21;100777.06;;;-0.08;54.23
13974;BME280;7060;43.770;4.008;2023-01-27T04:51:51;100786.25;;;0.00;54.24
13974;BME280;7060;43.770;4.008;2023-01-27T04:54:19;100791.53;;;0.00;53.75
13974;BME280;7060;43.770;4.008;2023-01-27T04:56:56;100787.97;;;0.01;53.31
13974;BME280;7060;43.770;4.008;2023-01-27T04:59:25;100788.59;;;0.07;53.53
13974;BME280;7060;43.770;4.008;2023-01-27T05:01:55;100789.19;;;0.12;53.07
13974;BME280;7060;43.770;4.008;2023-01-27T05:04:25;100793.38;;;0.16;52.88
13974;BME280;7060;43.770;4.008;2023-01-27T05:06:58;100787.78;;;0.22;53.05
13974;BME280;7060;43.770;4.008;2023-01-27T05:09:30;100785.00;;;0.25;52.49
13974;BME280;7060;43.770;4.008;2023-01-27T05:11:58;100783.31;;;0.24;53.00
13974;BME280;7060;43.770;4.008;2023-01-27T05:14:27;100793.69;;;0.27;52.82
13974;BME280;7060;43.770;4.008;2023-01-27T05:16:56;100789.97;;;0.31;52.50
13974;BME280;7060;43.770;4.008;2023-01-27T05:19:24;100795.00;;;0.35;52.81
13974;BME280;7060;43.770;4.008;2023-01-27T05:21:53;100795.84;;;0.36;52.87
13974;BME280;7060;43.770;4.008;2023-01-27T05:24:23;100794.06;;;0.37;52.70
13974;BME280;7060;43.770;4.008;2023-01-27T05:27:00;100800.31;;;0.34;52.51
13974;BME280;7060;43.770;4.008;2023-01-27T05:29:29;100802.78;;;0.37;52.44
13974;BME280;7060;43.770;4.008;2023-01-27T05:31:58;100807.03;;;0.40;52.30
13974;BME280;7060;43.770;4.008;2023-01-27T05:34:29;100805.00;;;0.45;52.13
13974;BME280;7060;43.770;4.008;2023-01-27T05:36:58;100805.72;;;0.48;52.44
13974;BME280;7060;43.770;4.008;2023-01-27T05:39:28;100799.59;;;0.48;52.38
13974;BME280;7060;43.770;4.008;2023-01-27T05:41:56;100803.94;;;0.49;52.21
13974;BME280;7060;43.770;4.008;2023-01-27T05:44:25;100813.59;;;0.48;52.45
13974;BME280;7060;43.770;4.008;2023-01-27T05:47:07;100812.06;;;0.44;52.10
13974;BME280;7060;43.770;4.008;2023-01-27T05:49:36;100821.72;;;0.44;52.49
13974;BME280;7060;43.770;4.008;2023-01-27T05:52:04;100819.00;;;0.45;52.19
13974;BME280;7060;43.770;4.008;2023-01-27T05:54:34;100824.19;;;0.47;52.45
13974;BME280;7060;43.770;4.008;2023-01-27T05:57:03;100822.34;;;0.49;52.38
13974;BME280;7060;43.770;4.008;2023-01-27T05:59:31;100823.28;;;0.48;52.62
13974;BME280;7060;43.770;4.008;2023-01-27T06:02:00;100830.47;;;0.44;52.34
13974;BME280;7060;43.770;4.008;2023-01-27T06:04:31;100832.53;;;0.38;52.67
13974;BME280;7060;43.770;4.008;2023-01-27T06:07:00;100829.25;;;0.34;52.71
13974;BME280;7060;43.770;4.008;2023-01-27T06:09:29;100831.34;;;0.27;52.86
13974;BME280;7060;43.770;4.008;2023-01-27T06:11:59;100841.00;;;0.27;52.84
13974;BME280;7060;43.770;4.008;2023-01-27T06:14:28;100840.16;;;0.26;53.27
13974;BME280;7060;43.770;4.008;2023-01-27T06:16:57;100841.00;;;0.27;53.15
13974;BME280;7060;43.770;4.008;2023-01-27T06:19:27;100844.41;;;0.29;53.04
13974;BME280;7060;43.770;4.008;2023-01-27T06:21:56;100852.22;;;0.30;52.69
13974;BME280;7060;43.770;4.008;2023-01-27T06:24:25;100850.53;;;0.29;52.64
13974;BME280;7060;43.770;4.008;2023-01-27T06:26:54;100852.06;;;0.33;52.61
13974;BME280;7060;43.770;4.008;2023-01-27T06:29:24;100843.63;;;0.27;52.71
13974;BME280;7060;43.770;4.008;2023-01-27T06:31:53;100860.47;;;0.40;52.44
13974;BME280;7060;43.770;4.008;2023-01-27T06:34:26;100858.78;;;0.39;52.71
13974;BME280;7060;43.770;4.008;2023-01-27T06:36:55;100857.84;;;0.40;52.34
13974;BME280;7060;43.770;4.008;2023-01-27T06:39:24;100857.00;;;0.40;52.58
13974;BME280;7060;43.770;4.008;2023-01-27T06:41:53;100855.38;;;0.37;52.82
13974;BME280;7060;43.770;4.008;2023-01-27T06:44:22;100858.09;;;0.35;52.86
13974;BME280;7060;43.770;4.008;2023-01-27T06:46:52;100861.47;;;0.38;52.14
13974;BME280;7060;43.770;4.008;2023-01-27T06:49:21;100862.31;;;0.38;52.56
13974;BME280;7060;43.770;4.008;2023-01-27T06:51:49;100866.00;;;0.35;52.71
13974;BME280;7060;43.770;4.008;2023-01-27T06:54:18;100866.66;;;0.39;52.30
13974;BME280;7060;43.770;4.008;2023-01-27T06:56:47;100849.88;;;0.42;52.22
13974;BME280;7060;43.770;4.008;2023-01-27T06:59:18;100855.06;;;0.43;52.63
13974;BME280;7060;43.770;4.008;2023-01-27T07:01:46;100853.34;;;0.42;52.33
13974;BME280;7060;43.770;4.008;2023-01-27T07:04:17;100855.84;;;0.45;52.52
13974;BME280;7060;43.770;4.008;2023-01-27T07:06:46;100847.16;;;0.43;52.13
13974;BME280;7060;43.770;4.008;2023-01-27T07:09:22;100856.38;;;0.52;52.20
13974;BME280;7060;43.770;4.008;2023-01-27T07:11:50;100858.78;;;0.56;52.16
13974;BME280;7060;43.770;4.008;2023-01-27T07:14:19;100870.00;;;0.60;51.88
13974;BME280;7060;43.770;4.008;2023-01-27T07:16:48;100866.09;;;0.67;51.91
13974;BME280;7060;43.770;4.008;2023-01-27T07:19:18;100861.69;;;0.67;51.33
13974;BME280;7060;43.770;4.008;2023-01-27T07:21:46;100865.63;;;0.76;51.35
13974;BME280;7060;43.770;4.008;2023-01-27T07:24:15;100868.03;;;0.81;51.41
13974;BME280;7060;43.770;4.008;2023-01-27T07:26:45;100862.28;;;0.90;51.27
13974;BME280;7060;43.770;4.008;2023-01-27T07:29:15;100864.72;;;0.93;51.43
13974;BME280;7060;43.770;4.008;2023-01-27T07:31:43;100862.94;;;0.93;51.43
13974;BME280;7060;43.770;4.008;2023-01-27T07:34:12;100859.38;;;0.94;51.07
13974;BME280;7060;43.770;4.008;2023-01-27T07:36:43;100866.19;;;0.98;51.02
13974;BME280;7060;43.770;4.008;2023-01-27T07:39:12;100861.53;;;1.03;51.00
13974;BME280;7060;43.770;4.008;2023-01-27T07:41:42;100866.56;;;1.08;50.88
13974;BME280;7060;43.770;4.008;2023-01-27T07:44:14;100857.25;;;1.18;50.47
13974;BME280;7060;43.770;4.008;2023-01-27T07:46:44;100862.00;;;1.27;50.32
13974;BME280;7060;43.770;4.008;2023-01-27T07:49:12;100857.94;;;1.37;50.51
13974;BME280;7060;43.770;4.008;2023-01-27T07:51:43;100858.44;;;1.44;49.85
13974;BME280;7060;43.770;4.008;2023-01-27T07:54:12;100864.03;;;1.54;50.03
13974;BME280;7060;43.770;4.008;2023-01-27T07:56:40;100878.66;;;1.59;50.06
13974;BME280;7060;43.770;4.008;2023-01-27T07:59:09;100884.03;;;1.58;49.72
13974;BME280;7060;43.770;4.008;2023-01-27T08:01:39;100885.13;;;1.54;49.51
13974;BME280;7060;43.770;4.008;2023-01-27T08:04:09;100880.69;;;1.54;49.55
13974;BME280;7060;43.770;4.008;2023-01-27T08:06:38;100876.13;;;1.58;49.39
13974;BME280;7060;43.770;4.008;2023-01-27T08:09:08;100880.72;;;1.70;49.83
13974;BME280;7060;43.770;4.008;2023-01-27T08:11:37;100882.56;;;1.99;49.49
13974;BME280;7060;43.770;4.008;2023-01-27T08:14:05;100883.13;;;2.34;48.88
13974;BME280;7060;43.770;4.008;2023-01-27T08:16:34;100877.38;;;2.72;47.91
13974;BME280;7060;43.770;4.008;2023-01-27T08:19:02;100886.06;;;3.17;47.27
13974;BME280;7060;43.770;4.008;2023-01-27T08:21:31;100881.13;;;3.53;45.24
13974;BME280;7060;43.770;4.008;2023-01-27T08:24:00;100886.16;;;3.85;45.59
13974;BME280;7060;43.770;4.008;2023-01-27T08:26:29;100891.44;;;4.12;44.40
13974;BME280;7060;43.770;4.008;2023-01-27T08:28:58;100881.78;;;4.37;43.57
13974;BME280;7060;43.770;4.008;2023-01-27T08:31:27;100878.84;;;4.55;42.60
13974;BME280;7060;43.770;4.008;2023-01-27T08:33:55;100879.50;;;4.71;42.70
13974;BME280;7060;43.770;4.008;2023-01-27T08:36:24;100888.75;;;4.91;42.26
13974;BME280;7060;43.770;4.008;2023-01-27T08:38:54;100886.00;;;5.05;41.80
13974;BME280;7060;43.770;4.008;2023-01-27T08:41:24;100882.81;;;5.13;41.30
13974;BME280;7060;43.770;4.008;2023-01-27T08:43:54;100893.53;;;5.24;41.24
13974;BME280;7060;43.770;4.008;2023-01-27T08:46:23;100896.34;;;5.33;40.46
13974;BME280;7060;43.770;4.008;2023-01-27T08:48:52;100899.31;;;5.41;41.22
13974;BME280;7060;43.770;4.008;2023-01-27T08:51:20;100897.72;;;5.39;40.93
13974;BME280;7060;43.770;4.008;2023-01-27T08:53:49;100904.00;;;5.38;40.27
13974;BME280;7060;43.770;4.008;2023-01-27T08:56:18;100905.25;;;5.32;40.17
13974;BME280;7060;43.770;4.008;2023-01-27T08:58:48;100899.13;;;5.19;40.20
13974;BME280;7060;43.770;4.008;2023-01-27T09:01:20;100901.16;;;5.16;40.57
13974;BME280;7060;43.770;4.008;2023-01-27T09:03:48;100891.41;;;5.16;40.40
13974;BME280;7060;43.770;4.008;2023-01-27T09:06:18;100900.72;;;5.09;40.61
13974;BME280;7060;43.770;4.008;2023-01-27T09:08:47;100886.94;;;5.17;40.50
13974;BME280;7060;43.770;4.008;2023-01-27T09:11:39;100907.63;;;5.11;40.16
13974;BME280;7060;43.770;4.008;2023-01-27T09:14:08;100891.41;;;5.03;40.69
13974;BME280;7060;43.770;4.008;2023-01-27T09:16:38;100899.91;;;4.96;41.23
13974;BME280;7060;43.770;4.008;2023-01-27T09:19:07;100923.53;;;4.99;41.25
13974;BME280;7060;43.770;4.008;2023-01-27T09:21:36;100913.78;;;4.99;40.64
13974;BME280;7060;43.770;4.008;2023-01-27T09:24:04;100900.59;;;4.85;41.35
13974;BME280;7060;43.770;4.008;2023-01-27T09:26:33;100913.09;;;4.83;41.59
13974;BME280;7060;43.770;4.008;2023-01-27T09:29:01;100891.91;;;4.83;41.44
13974;BME280;7060;43.770;4.008;2023-01-27T09:31:30;100899.00;;;4.83;42.16
13974;BME280;7060;43.770;4.008;2023-01-27T09:34:00;100919.13;;;4.85;42.22
13974;BME280;7060;43.770;4.008;2023-01-27T09:36:32;100905.34;;;4.80;40.88
13974;BME280;7060;43.770;4.008;2023-01-27T09:39:06;100914.78;;;4.71;41.66
13974;BME280;7060;43.770;4.008;2023-01-27T09:41:56;100924.84;;;4.66;41.46
13974;BME280;7060;43.770;4.008;2023-01-27T09:47:53;100898.56;;;4.63;41.59
13974;BME280;7060;43.770;4.008;2023-01-27T09:50:38;100908.19;;;4.64;41.86
13974;BME280;7060;43.770;4.008;2023-01-27T09:56:28;100886.34;;;4.48;42.08
13974;BME280;7060;43.770;4.008;2023-01-27T09:59:11;100919.97;;;4.73;42.12
13974;BME280;7060;43.770;4.008;2023-01-27T10:01:50;100929.41;;;4.77;42.09
13974;BME280;7060;43.770;4.008;2023-01-27T10:04:41;100928.03;;;4.84;42.71
13974;BME280;7060;43.770;4.008;2023-01-27T10:07:41;100922.25;;;4.92;41.56
13974;BME280;7060;43.770;4.008;2023-01-27T10:10:27;100923.22;;;4.91;41.93
13974;BME280;7060;43.770;4.008;2023-01-27T10:13:27;100933.06;;;4.89;41.18
13974;BME280;7060;43.770;4.008;2023-01-27T10:16:10;100936.34;;;4.92;42.40
13974;BME280;7060;43.770;4.008;2023-01-27T10:19:05;100928.00;;;4.98;41.74
13974;BME280;7060;43.770;4.008;2023-01-27T10:21:44;100937.63;;;4.99;41.26
13974;BME280;7060;43.770;4.008;2023-01-27T10:24:26;100949.78;;;5.02;41.19
13974;BME280;7060;43.770;4.008;2023-01-27T10:27:00;100929.03;;;4.96;41.87
13974;BME280;7060;43.770;4.008;2023-01-27T10:29:38;100902.69;;;4.80;40.91
13974;BME280;7060;43.770;4.008;2023-01-27T10:32:17;100910.34;;;4.85;41.89
13974;BME280;7060;43.770;4.008;2023-01-27T10:34:56;100941.34;;;4.97;41.40
13974;BME280;7060;43.770;4.008;2023-01-27T10:37:38;100926.19;;;4.99;41.25
13974;BME280;7060;43.770;4.008;2023-01-27T10:40:17;100927.13;;;4.98;42.27
13974;BME280;7060;43.770;4.008;2023-01-27T10:42:52;100927.75;;;5.14;41.13
13974;BME280;7060;43.770;4.008;2023-01-27T10:45:26;100914.19;;;5.19;41.42
13974;BME280;7060;43.770;4.008;2023-01-27T10:48:15;100919.38;;;5.20;41.59
13974;BME280;7060;43.770;4.008;2023-01-27T10:50:49;100921.50;;;5.28;41.08
13974;BME280;7060;43.770;4.008;2023-01-27T10:53:26;100934.31;;;5.34;41.33
13974;BME280;7060;43.770;4.008;2023-01-27T10:56:02;100910.97;;;5.39;40.76
13974;BME280;7060;43.770;4.008;2023-01-27T10:58:44;100909.81;;;5.43;41.15
13974;BME280;7060;43.770;4.008;2023-01-27T11:01:23;100921.81;;;5.49;41.51
13974;BME280;7060;43.770;4.008;2023-01-27T11:04:07;100910.09;;;5.64;41.46
13974;BME280;7060;43.770;4.008;2023-01-27T11:06:40;100920.06;;;5.73;40.93
13974;BME280;7060;43.770;4.008;2023-01-27T11:09:20;100902.66;;;5.69;41.04
13974;BME280;7060;43.770;4.008;2023-01-27T11:11:56;100919.28;;;5.84;41.01
13974;BME280;7060;43.770;4.008;2023-01-27T11:14:28;100914.25;;;5.92;41.37
13974;BME280;7060;43.770;4.008;2023-01-27T11:17:02;100919.97;;;5.98;40.73
13974;BME280;7060;43.770;4.008;2023-01-27T11:19:41;100909.16;;;5.89;40.93
13974;BME280;7060;43.770;4.008;2023-01-27T11:22:17;100900.88;;;5.93;41.35
13974;BME280;7060;43.770;4.008;2023-01-27T11:24:51;100905.81;;;6.10;41.72
13974;BME280;7060;43.770;4.008;2023-01-27T11:27:35;100905.72;;;6.23;41.41
13974;BME280;7060;43.770;4.008;2023-01-27T11:30:12;100904.09;;;6.33;41.03
13974;BME280;7060;43.770;4.008;2023-01-27T11:32:51;100904.94;;;6.34;40.89
13974;BME280;7060;43.770;4.008;2023-01-27T11:35:22;100899.63;;;6.34;40.37
13974;BME280;7060;43.770;4.008;2023-01-27T11:37:51;100859.47;;;6.14;40.41
13974;BME280;7060;43.770;4.008;2023-01-27T11:40:29;100891.19;;;6.40;41.03
13974;BME280;7060;43.770;4.008;2023-01-27T11:43:01;100890.03;;;6.55;40.78
13974;BME280;7060;43.770;4.008;2023-01-27T11:45:33;100892.13;;;6.63;40.82
13974;BME280;7060;43.770;4.008;2023-01-27T11:48:06;100881.13;;;6.67;40.51
13974;BME280;7060;43.770;4.008;2023-01-27T11:50:35;100888.75;;;6.72;40.25
13974;BME280;7060;43.770;4.008;2023-01-27T11:53:11;100889.47;;;6.74;39.43
13974;BME280;7060;43.770;4.008;2023-01-27T11:55:43;100882.59;;;6.71;39.78
13974;BME280;7060;43.770;4.008;2023-01-27T11:58:23;100880.16;;;6.68;39.25
13974;BME280;7060;43.770;4.008;2023-01-27T12:00:56;100885.13;;;6.62;40.17
13974;BME280;7060;43.770;4.008;2023-01-27T12:03:36;100870.50;;;6.56;40.28
13974;BME280;7060;43.770;4.008;2023-01-27T12:06:13;100868.91;;;6.54;39.91
13974;BME280;7060;43.770;4.008;2023-01-27T12:08:45;100865.75;;;6.48;40.36
13974;BME280;7060;43.770;4.008;2023-01-27T12:11:21;100857.06;;;6.46;39.85
13974;BME280;7060;43.770;4.008;2023-01-27T12:13:53;100851.84;;;6.45;40.30
13974;BME280;7060;43.770;4.008;2023-01-27T12:16:26;100851.13;;;6.43;39.59
13974;BME280;7060;43.770;4.008;2023-01-27T12:19:03;100848.34;;;6.44;40.33
13974;BME280;7060;43.770;4.008;2023-01-27T12:21:37;100847.03;;;6.50;40.95
13974;BME280;7060;43.770;4.008;2023-01-27T12:24:20;100845.50;;;6.59;41.16
13974;BME280;7060;43.770;4.008;2023-01-27T12:26:50;100839.13;;;6.61;40.95
13974;BME280;7060;43.770;4.008;2023-01-27T12:29:25;100803.09;;;6.46;40.09
13974;BME280;7060;43.770;4.008;2023-01-27T12:31:57;100830.66;;;6.67;40.99
13974;BME280;7060;43.770;4.008;2023-01-27T12:34:32;100819.06;;;6.68;40.27
13974;BME280;7060;43.770;4.008;2023-01-27T12:37:03;100835.97;;;6.56;39.99
13974;BME280;7060;43.770;4.008;2023-01-27T12:39:40;100840.50;;;6.43;40.77
13974;BME280;7060;43.770;4.008;2023-01-27T12:42:34;100827.59;;;6.38;40.51
13974;BME280;7060;43.770;4.008;2023-01-27T12:45:24;100823.59;;;6.33;40.68
13974;BME280;7060;43.770;4.008;2023-01-27T12:47:56;100784.69;;;6.21;40.50
13974;BME280;7060;43.770;4.008;2023-01-27T12:50:27;100820.59;;;6.37;40.70
13974;BME280;7060;43.770;4.008;2023-01-27T12:53:10;100819.25;;;6.43;40.35
13974;BME280;7060;43.770;4.008;2023-01-27T12:55:40;100791.22;;;6.28;40.85
13974;BME280;7060;43.770;4.008;2023-01-27T12:58:29;100817.09;;;6.37;40.35
13974;BME280;7060;43.770;4.008;2023-01-27T13:01:02;100823.59;;;6.33;41.15
13974;BME280;7060;43.770;4.008;2023-01-27T13:03:37;100823.38;;;6.36;40.90
13974;BME280;7060;43.770;4.008;2023-01-27T13:06:14;100814.31;;;6.38;40.86
13974;BME280;7060;43.770;4.008;2023-01-27T13:08:43;100817.56;;;6.42;40.77
13974;BME280;7060;43.770;4.008;2023-01-27T13:11:13;100823.88;;;6.52;40.47
13974;BME280;7060;43.770;4.008;2023-01-27T13:13:48;100816.41;;;6.57;41.23
13974;BME280;7060;43.770;4.008;2023-01-27T13:16:25;100819.66;;;6.61;40.89
13974;BME280;7060;43.770;4.008;2023-01-27T13:18:55;100822.69;;;6.56;41.27
13974;BME280;7060;43.770;4.008;2023-01-27T13:21:27;100822.91;;;6.53;40.10
13974;BME280;7060;43.770;4.008;2023-01-27T13:23:58;100731.66;;;5.97;40.78
13974;BME280;7060;43.770;4.008;2023-01-27T13:26:31;100814.94;;;6.53;40.69
13974;BME280;7060;43.770;4.008;2023-01-27T13:29:10;100810.47;;;6.54;40.73
13974;BME280;7060;43.770;4.008;2023-01-27T13:31:46;100812.28;;;6.53;40.57
13974;BME280;7060;43.770;4.008;2023-01-27T13:34:23;100781.09;;;6.33;40.53
13974;BME280;7060;43.770;4.008;2023-01-27T13:36:59;100806.94;;;6.42;40.81
13974;BME280;7060;43.770;4.008;2023-01-27T13:39:41;100814.66;;;6.45;40.69
13974;BME280;7060;43.770;4.008;2023-01-27T13:42:17;100807.16;;;6.39;40.49
13974;BME280;7060;43.770;4.008;2023-01-27T13:44:49;100809.97;;;6.37;40.58
13974;BME280;7060;43.770;4.008;2023-01-27T13:47:28;100814.16;;;6.40;40.46